ADDS METAR Data INFO
IDs: Format: Raw Decoded Include TAF

Data at: 1047 UTC 19 Oct 2017

KW96 191035Z AUTO 00000KT 10SM SCT001 06/06 A3029 RMK AO1 T00600060
KW96 191015Z AUTO 00000KT 10SM CLR 06/06 A3029 RMK AO1 T00620062
KW96 190955Z AUTO 10003KT 10SM CLR 06/06 A3029 RMK AO1 T00630063
KW96 190935Z AUTO 00000KT 10SM CLR 06/06 A3029 RMK AO1 T00580058
KW96 190915Z AUTO 00000KT 10SM CLR 06/06 A3029 RMK AO1 T00580058
KW96 190855Z AUTO 00000KT 10SM CLR 06/06 A3029 RMK AO1 T00560056
KW96 190835Z AUTO 00000KT 10SM CLR 06/06 A3029 RMK AO1 T00570057
KW96 190815Z AUTO 00000KT 10SM CLR 06/06 A3029 RMK AO1 T00560056
KW96 190755Z AUTO 09003KT 10SM CLR 06/06 A3029 RMK AO1 T00620062
KW96 190735Z AUTO 12003KT 10SM CLR 06/06 A3030 RMK AO1 T00630063
KW96 190715Z AUTO 00000KT 10SM CLR 06/06 A3030 RMK AO1 T00610061
KW96 190655Z AUTO 00000KT 10SM CLR 07/07 A3030 RMK AO1 T00650065
KW96 190635Z AUTO 00000KT 10SM CLR 07/07 A3031 RMK AO1 T00650065
KW96 190615Z AUTO 00000KT 10SM CLR 06/06 A3031 RMK AO1 T00620062
KW96 190555Z AUTO 00000KT 10SM CLR 07/07 A3031 RMK AO1 T00660066 10111 20065
KW96 190535Z AUTO 00000KT 10SM CLR 07/07 A3032 RMK AO1 T00670067
KW96 190515Z AUTO 00000KT 10SM CLR 07/07 A3032 RMK AO1 T00670067
KW96 190455Z AUTO 00000KT 10SM CLR 07/07 A3032 RMK AO1 T00720072 401990024
KW96 190435Z AUTO 00000KT 10SM CLR 07/07 A3032 RMK AO1 T00690069
KW96 190415Z AUTO 00000KT 10SM CLR 07/07 A3033 RMK AO1 T00720072
KW96 190355Z AUTO 00000KT 10SM CLR 08/08 A3033 RMK AO1 T00770077
KW96 190335Z AUTO 00000KT 10SM CLR 08/08 A3033 RMK AO1 T00800080
KW96 190315Z AUTO 36004KT 10SM CLR 08/08 A3033 RMK AO1 T00750075
KW96 190255Z AUTO 00000KT 10SM CLR 08/08 A3033 RMK AO1 T00820082
KW96 190235Z AUTO 00000KT 10SM CLR 08/08 A3033 RMK AO1 T00800080
KW96 190215Z AUTO 00000KT 10SM CLR 08/08 A3033 RMK AO1 T00800080
KW96 190155Z AUTO 00000KT 10SM CLR 08/08 A3033 RMK AO1 T00830083
KW96 190135Z AUTO 00000KT 10SM CLR 09/09 A3033 RMK AO1 T00890089
KW96 190115Z AUTO 18004KT 10SM CLR 09/09 A3033 RMK AO1 T00890089
KW96 190055Z AUTO 00000KT 10SM CLR 10/10 A3033 RMK AO1 T00950095
KW96 190035Z AUTO 00000KT 10SM CLR 10/10 A3033 RMK AO1 T01020099
KW96 190015Z AUTO 00000KT 10SM CLR 11/10 A3033 RMK AO1 T01060101
KW96 182355Z AUTO 00000KT 10SM CLR 11/10 A3032 RMK AO1 T01120097 10199 20112
KW96 182335Z AUTO 17003KT 10SM CLR 12/10 A3032 RMK AO1 T01160098
KW96 182315Z AUTO 09005KT 10SM CLR 12/10 A3032 RMK AO1 T01220096
KW96 182255Z AUTO 00000KT 10SM CLR 13/10 A3032 RMK AO1 T01330095
KW96 182235Z AUTO 00000KT 10SM CLR 14/10 A3032 RMK AO1 T01410095
KW96 182215Z AUTO 10SM CLR 16/10 A3031 RMK AO1 T01620098
KW96 182155Z AUTO 10SM CLR 18/08 A3031 RMK AO1 T01790081
KW96 182135Z AUTO 00000KT 10SM CLR 19/07 A3031 RMK AO1 T01860066
KW96 182115Z AUTO 12003KT 10SM CLR 19/06 A3032 RMK AO1 T01900064
KW96 182055Z AUTO 11004KT 10SM CLR 19/06 A3032 RMK AO1 T01940063
KW96 182035Z AUTO 00000KT 10SM CLR 20/06 A3032 RMK AO1 T01960058
KW96 182015Z AUTO 14003KT 10SM CLR 20/05 A3033 RMK AO1 T01980052
KW96 181955Z AUTO 10SM CLR 20/05 A3033 RMK AO1 T01950045
KW96 181935Z AUTO 10SM CLR 20/04 A3034 RMK AO1 T01960044
KW96 181915Z AUTO 10SM CLR 19/02 A3034 RMK AO1 T01910022
KW96 181855Z AUTO 10SM CLR 19/03 A3034 RMK AO1 T01920032
KW96 181835Z AUTO 24004KT 10SM CLR 19/03 A3035 RMK AO1 T01900030
KW96 181815Z AUTO 00000KT 10SM CLR 19/04 A3035 RMK AO1 T01850041
KW96 181755Z AUTO 09004KT 10SM CLR 19/05 A3036 RMK AO1 T01850045 10188 20035
KW96 181735Z AUTO 00000KT 10SM CLR 19/05 A3037 RMK AO1 T01860052
KW96 181715Z AUTO 08004KT 10SM CLR 18/05 A3038 RMK AO1 T01790046
KW96 181655Z AUTO 20007KT 10SM CLR 17/05 A3040 RMK AO1 T01740051
KW96 181635Z AUTO 00000KT 10SM CLR 17/04 A3041 RMK AO1 T01680042
KW96 181615Z AUTO 19005KT 10SM CLR 17/05 A3041 RMK AO1 T01700052
KW96 181555Z AUTO 00000KT 10SM CLR 16/05 A3042 RMK AO1 T01570047
KW96 181535Z AUTO 00000KT 10SM CLR 16/06 A3042 RMK AO1 T01560055
KW96 181515Z AUTO 00000KT 10SM CLR 15/05 A3042 RMK AO1 T01500054
KW96 181455Z AUTO 23003KT 10SM CLR 14/07 A3042 RMK AO1 T01430071
KW96 181435Z AUTO 26003KT 10SM CLR 14/08 A3042 RMK AO1 T01360078
KW96 181415Z AUTO 29006KT 10SM CLR 12/08 A3042 RMK AO1 T01230084
KW96 181355Z AUTO 00000KT 10SM CLR 11/09 A3042 RMK AO1 T01120086
KW96 181335Z AUTO 00000KT 10SM CLR 10/08 A3041 RMK AO1 T00970080
KW96 181315Z AUTO 00000KT 10SM CLR 08/07 A3041 RMK AO1 T00840072
KW96 181255Z AUTO 00000KT 10SM CLR 07/07 A3041 RMK AO1 T00680065
KW96 181235Z AUTO 00000KT 10SM CLR 05/05 A3040 RMK AO1 T00520052
KW96 181215Z AUTO 00000KT 10SM CLR 04/04 A3039 RMK AO1 T00400040
KW96 181155Z AUTO 00000KT 10SM CLR 03/03 A3038 RMK AO1 T00320032 10040 20024
KW96 181135Z AUTO 00000KT 10SM CLR 03/03 A3037 RMK AO1 T00260026
KW96 181115Z AUTO 00000KT 10SM CLR 02/02 A3037 RMK AO1 T00240024
KW96 181055Z AUTO 00000KT 10SM CLR 03/03 A3036 RMK AO1 T00250025
KW96 181035Z AUTO 00000KT 10SM CLR 03/03 A3036 RMK AO1 T00270027
KW96 181015Z AUTO 00000KT 10SM CLR 03/03 A3036 RMK AO1 T00280028
KW96 180955Z AUTO 00000KT 10SM CLR 03/03 A3036 RMK AO1 T00320032
KW96 180935Z AUTO 10SM CLR 03/03 A3036 RMK AO1 T00270027
KW96 180915Z AUTO 00000KT 10SM CLR 03/03 A3035 RMK AO1 T00320032
KW96 180855Z AUTO 10SM CLR 03/03 A3035 RMK AO1 T00310031
KW96 180835Z AUTO 00000KT 10SM CLR 03/03 A3034 RMK AO1 T00310031
KW96 180815Z AUTO 00000KT 10SM CLR 03/03 A3033 RMK AO1 T00300030
KW96 180755Z AUTO 00000KT 10SM CLR 03/03 A3033 RMK AO1 T00300030
KW96 180735Z AUTO 00000KT 10SM CLR 04/04 A3033 RMK AO1 T00350035
KW96 180715Z AUTO 00000KT 10SM CLR 03/03 A3034 RMK AO1 T00330033
KW96 180655Z AUTO 00000KT 10SM CLR 03/03 A3034 RMK AO1 T00340034
KW96 180635Z AUTO 00000KT 10SM CLR 04/04 A3034 RMK AO1 T00370037
KW96 180615Z AUTO 00000KT 10SM CLR 04/04 A3034 RMK AO1 T00370037
KW96 180555Z AUTO 00000KT 10SM CLR 04/04 A3034 RMK AO1 T00410041 10085 20040
KW96 180535Z AUTO 00000KT 10SM CLR 04/04 A3034 RMK AO1 T00430043
KW96 180515Z AUTO 00000KT 10SM CLR 04/04 A3034 RMK AO1 T00400040
KW96 180455Z AUTO 00000KT 10SM CLR 05/05 A3034 RMK AO1 T00450045 401640044
KW96 180435Z AUTO 00000KT 10SM CLR 05/05 A3034 RMK AO1 T00450045
KW96 180415Z AUTO 00000KT 10SM CLR 05/05 A3034 RMK AO1 T00480048
KW96 180355Z AUTO 00000KT 10SM CLR 05/05 A3034 RMK AO1 T00480048
KW96 180335Z AUTO 00000KT 10SM CLR 06/06 A3035 RMK AO1 T00550055
KW96 180315Z AUTO 09005KT 10SM CLR 05/05 A3035 RMK AO1 T00530053
KW96 180255Z AUTO 00000KT 10SM CLR 06/06 A3035 RMK AO1 T00580058
KW96 180235Z AUTO 00000KT 10SM CLR 06/06 A3035 RMK AO1 T00610061
KW96 180215Z AUTO 00000KT 10SM CLR 06/06 A3035 RMK AO1 T00590059
KW96 180155Z AUTO 00000KT 10SM CLR 06/06 A3035 RMK AO1 T00640064
KW96 180135Z AUTO 00000KT 10SM CLR 07/07 A3034 RMK AO1 T00660066
KW96 180115Z AUTO 00000KT 10SM CLR 07/07 A3034 RMK AO1 T00690068
KW96 180055Z AUTO 00000KT 10SM CLR 07/07 A3033 RMK AO1 T00700070
KW96 180035Z AUTO 00000KT 10SM CLR 08/07 A3033 RMK AO1 T00750071
KW96 180015Z AUTO 00000KT 10SM CLR 08/07 A3033 RMK AO1 T00800070
KW96 172355Z AUTO 00000KT 10SM CLR 09/07 A3033 RMK AO1 T00890066 10164 20089
KW96 172335Z AUTO 00000KT 10SM CLR 09/07 A3032 RMK AO1 T00910065
KW96 172315Z AUTO 00000KT 10SM CLR 10/06 A3031 RMK AO1 T00970061
KW96 172255Z AUTO 00000KT 10SM CLR 11/06 A3031 RMK AO1 T01050058